Abis Bremen — PCJO — position and weather

sailwx.info

Track history (hours):
 
Tides and Currents Weather Stations Pressure Air Temp Water Temp Dewpoint Dewpoint Depression Visibility Wind Speed Wind Dir Waves Ship Positions

Abis Bremen

Last reported at 2017-Mar-23 17:33 UTC. Time now 2017-Mar-23 18:22 UTC.
Position N 60°44' E 004°45'.

Length 90 m; draft 5.2 m.

Type: Ship. MMSI: 246778880.

Date/timePositionNaut miles runAvg speedWind from/ knotsBaromVisibWave heightAir tempDewpointWater temp
2017-Mar-23 17:33N 60°44' E 004°45'7 7.4
2017-Mar-23 16:33N 60°37' E 004°51'0 0.0
2017-Mar-23 15:09N 60°37' E 004°51'0 0.0
2017-Mar-23 14:33N 60°37' E 004°51'0 0.0
2017-Mar-23 13:33N 60°37' E 004°51'0 0.0
2017-Mar-23 12:33N 60°37' E 004°51'0 0.0
2017-Mar-23 11:33N 60°37' E 004°51'0 0.0
2017-Mar-23 10:33N 60°37' E 004°51'0 0.0
2017-Mar-23 09:33N 60°37' E 004°51'4 4.2
2017-Mar-23 08:33N 60°41' E 004°49'10 9.7
2017-Mar-23 07:34N 60°47' E 004°33'10 9.8
2017-Mar-23 06:32N 60°55' E 004°22'1110.7
2017-Mar-23 05:33N 61°06' E 004°21'1010.3
2017-Mar-23 04:34N 61°16' E 004°21'10 9.8
2017-Mar-23 03:33N 61°26' E 004°21'1110.6
2017-Mar-23 02:33N 61°37' E 004°22'1010.0
2017-Mar-23 01:33N 61°46' E 004°25'9 9.2
2017-Mar-23 00:33N 61°55' E 004°32'9 9.1
2017-Mar-22 23:33N 62°03' E 004°41'9 9.3
2017-Mar-22 22:33N 62°11' E 004°53'9 9.2
2017-Mar-22 21:33N 62°17' E 005°06'8 8.2
2017-Mar-22 20:33N 62°23' E 005°18'8 8.1
2017-Mar-22 19:33N 62°29' E 005°32'7 6.8
2017-Mar-22 18:33N 62°29' E 005°46'8 8.2
2017-Mar-22 17:33N 62°28' E 006°04'1110.8
2017-Mar-22 16:33N 62°37' E 006°18'1110.9
2017-Mar-22 15:33N 62°43' E 006°37'2 2.1
2017-Mar-22 14:31N 62°41' E 006°40'0 0.0
2017-Mar-22 13:31N 62°41' E 006°40'0 0.0
2017-Mar-22 12:31N 62°41' E 006°40'0 0.0
2017-Mar-22 11:31N 62°41' E 006°40'0 0.0
2017-Mar-22 10:31N 62°41' E 006°40'0 0.0
2017-Mar-22 09:31N 62°41' E 006°40'0 0.0
2017-Mar-22 08:31N 62°41' E 006°40'0 0.0
2017-Mar-22 07:31N 62°41' E 006°40'0 0.0
2017-Mar-22 06:31N 62°41' E 006°40'0 0.0
2017-Mar-22 05:31N 62°41' E 006°40'0 0.0
2017-Mar-22 04:31N 62°41' E 006°40'0 0.0
2017-Mar-22 03:31N 62°41' E 006°40'0 0.0
2017-Mar-22 02:10N 62°41' E 006°40'0 0.0
2017-Mar-22 01:31N 62°41' E 006°40'0 0.0
2017-Mar-22 00:31N 62°41' E 006°40'0 0.0
2017-Mar-21 23:31N 62°41' E 006°40'0 0.0
2017-Mar-21 22:31N 62°41' E 006°40'0 0.0
2017-Mar-21 21:31N 62°41' E 006°40'0 0.0
2017-Mar-21 20:31N 62°41' E 006°40'0 0.0
2017-Mar-21 19:31N 62°41' E 006°40'0 0.0
2017-Mar-21 18:28N 62°41' E 006°40'0 0.0
2017-Mar-21 17:31N 62°41' E 006°40'0 0.0
2017-Mar-21 16:31N 62°41' E 006°40'0 0.0
2017-Mar-21 15:31N 62°41' E 006°40'0 0.0
2017-Mar-21 14:31N 62°41' E 006°40'0 0.0
2017-Mar-21 13:31N 62°41' E 006°40'0 0.0
2017-Mar-21 12:31N 62°41' E 006°40'0 0.0
2017-Mar-21 11:31N 62°41' E 006°40'0 0.0
2017-Mar-21 10:31N 62°41' E 006°40'0 0.0
2017-Mar-21 09:31N 62°41' E 006°40'0 0.0
2017-Mar-21 08:31N 62°41' E 006°40'0 0.0
2017-Mar-21 07:31N 62°41' E 006°40'0 0.0
2017-Mar-21 06:31N 62°41' E 006°40'0 0.0
2017-Mar-21 05:31N 62°41' E 006°40'0 0.0
2017-Mar-21 04:31N 62°41' E 006°40'0 0.0
2017-Mar-21 03:31N 62°41' E 006°40'0 0.0
2017-Mar-21 02:31N 62°41' E 006°40'0 0.0
2017-Mar-21 01:31N 62°41' E 006°40'0 0.0
2017-Mar-21 00:31N 62°41' E 006°40'0 0.0
2017-Mar-20 23:28N 62°41' E 006°40'0 0.0
2017-Mar-20 22:31N 62°41' E 006°40'0 0.0
2017-Mar-20 21:31N 62°41' E 006°40'0 0.0
2017-Mar-20 20:31N 62°41' E 006°40'0 0.0
2017-Mar-20 19:31N 62°41' E 006°40'0 0.0
2017-Mar-20 18:31N 62°41' E 006°40'0 0.0
2017-Mar-20 17:31N 62°41' E 006°40'0 0.0
2017-Mar-20 16:31N 62°41' E 006°40'0 0.0
2017-Mar-20 15:31N 62°41' E 006°40'0 0.0
2017-Mar-20 14:31N 62°41' E 006°40'0 0.0
2017-Mar-20 13:25N 62°41' E 006°40'0 0.0
2017-Mar-20 12:31N 62°41' E 006°40'0 0.0
2017-Mar-20 11:31N 62°41' E 006°40'0 0.0
2017-Mar-20 10:28N 62°41' E 006°40'0 0.0
2017-Mar-20 09:33N 62°41' E 006°40'7 6.9
2017-Mar-20 08:33N 62°39' E 006°25'1211.7
2017-Mar-20 07:33N 62°30' E 006°09'9 8.5
2017-Mar-20 06:33N 62°28' E 005°51'9 8.9
2017-Mar-20 05:33N 62°29' E 005°32'1010.5
2017-Mar-20 04:33N 62°22' E 005°14'1010.5
2017-Mar-20 03:33N 62°14' E 004°59'1111.0
2017-Mar-20 02:33N 62°06' E 004°44'1111.1
2017-Mar-20 01:33N 61°58' E 004°28'27310.4
2017-Mar-18 23:15N 58°54' W 002°20'710.4
2017-Mar-18 22:33N 58°50' W 002°31'1110.6
2017-Mar-18 21:33N 58°43' W 002°48'1010.1
2017-Mar-18 20:33N 58°43' W 003°07'1110.8
2017-Mar-18 19:33N 58°42' W 003°28'1110.7
2017-Mar-18 18:33N 58°41' W 003°49'1111.1
2017-Mar-18 17:33N 58°41' W 004°10'1111.1
2017-Mar-18 16:33N 58°40' W 004°32'7610.2
2017-Mar-18 09:06N 57°38' W 005°54'711.6
2017-Mar-18 08:32N 57°31' W 005°54'1211.8
2017-Mar-18 07:29N 57°19' W 005°50'5 4.7
2017-Mar-18 06:29N 57°17' W 005°43'0 0.0
2017-Mar-18 05:31N 57°17' W 005°43'0 0.0
2017-Mar-18 04:31N 57°17' W 005°43'0 0.0
2017-Mar-18 03:28N 57°17' W 005°43'0 0.0
2017-Mar-18 02:32N 57°17' W 005°43'0 0.0
2017-Mar-18 01:26N 57°17' W 005°43'0 0.0
2017-Mar-18 00:32N 57°17' W 005°43'0 0.0
2017-Mar-17 23:32N 57°17' W 005°43'0 0.0
2017-Mar-17 22:29N 57°17' W 005°43'0 0.0
2017-Mar-17 21:32N 57°17' W 005°43'0 0.0
2017-Mar-17 20:31N 57°17' W 005°43'0 0.0
2017-Mar-17 19:32N 57°17' W 005°43'0 0.0
2017-Mar-17 18:29N 57°17' W 005°43'0 0.0
2017-Mar-17 17:32N 57°17' W 005°43'0 0.0
2017-Mar-17 16:32N 57°17' W 005°43'0 0.0
2017-Mar-17 15:26N 57°17' W 005°43'0 0.0
2017-Mar-17 14:29N 57°17' W 005°43'0 0.0
2017-Mar-17 13:29N 57°17' W 005°43'0 0.0
2017-Mar-17 12:29N 57°17' W 005°43'0 0.0
2017-Mar-17 11:26N 57°17' W 005°43'0 0.0
2017-Mar-17 10:11N 57°17' W 005°43'0 0.0
2017-Mar-17 09:29N 57°17' W 005°43'0 0.0
2017-Mar-17 08:32N 57°17' W 005°43'0 0.0
2017-Mar-17 07:20N 57°17' W 005°43'0 0.0
2017-Mar-17 06:26N 57°17' W 005°43'0 0.0
2017-Mar-17 05:32N 57°17' W 005°43'0 0.0
2017-Mar-17 04:29N 57°17' W 005°43'0 0.0
2017-Mar-17 03:26N 57°17' W 005°43'0 0.0
2017-Mar-17 02:29N 57°17' W 005°43'0 0.0
2017-Mar-17 01:32N 57°17' W 005°43'0 0.0
2017-Mar-17 00:29N 57°17' W 005°43'0 0.0
2017-Mar-16 23:30N 57°17' W 005°43'0 0.0
2017-Mar-16 21:05N 57°17' W 005°43'0 0.0
2017-Mar-16 18:11N 57°17' W 005°43'0 0.0
2017-Mar-16 17:32N 57°17' W 005°43'0 0.0
2017-Mar-16 16:20N 57°17' W 005°43'0 0.0
2017-Mar-16 15:29N 57°17' W 005°43'0 0.0
2017-Mar-16 14:29N 57°17' W 005°43'0 0.0
2017-Mar-16 13:26N 57°17' W 005°43'0 0.0
2017-Mar-16 12:23N 57°17' W 005°43'0 0.0
2017-Mar-16 11:23N 57°17' W 005°43'0 0.0
2017-Mar-16 10:32N 57°17' W 005°43'0 0.0
2017-Mar-16 09:14N 57°17' W 005°43'0 0.0
2017-Mar-16 08:23N 57°17' W 005°43'0 0.0
2017-Mar-16 07:17N 57°17' W 005°43'0 0.0
2017-Mar-16 06:23N 57°17' W 005°43'0 0.0
2017-Mar-16 05:14N 57°17' W 005°43'0 0.0
2017-Mar-16 04:29N 57°17' W 005°43'0 0.0
2017-Mar-16 03:29N 57°17' W 005°43'0 0.0
2017-Mar-16 02:23N 57°17' W 005°43'0 0.0
2017-Mar-16 01:29N 57°17' W 005°43'0 0.0
2017-Mar-16 00:32N 57°17' W 005°43'0 0.0
2017-Mar-15 23:29N 57°17' W 005°43'0 0.0
2017-Mar-15 22:23N 57°17' W 005°43'0 0.0
2017-Mar-15 21:20N 57°17' W 005°43'0 0.0
2017-Mar-15 20:29N 57°17' W 005°43'0 0.0
2017-Mar-15 19:26N 57°17' W 005°43'0 0.0
2017-Mar-15 18:23N 57°17' W 005°43'0 0.0
2017-Mar-15 17:32N 57°17' W 005°43'0 0.0
2017-Mar-15 16:23N 57°17' W 005°43'0 0.0
2017-Mar-15 15:29N 57°17' W 005°43'0 0.0
2017-Mar-15 14:32N 57°17' W 005°43'0 0.0
2017-Mar-15 13:23N 57°17' W 005°43'0 0.0
2017-Mar-15 12:29N 57°17' W 005°43'0 0.0
2017-Mar-15 11:32N 57°17' W 005°43'0 0.0
2017-Mar-15 10:29N 57°17' W 005°43'0 0.0
2017-Mar-15 09:23N 57°17' W 005°43'0 0.0
2017-Mar-15 08:29N 57°17' W 005°43'0 0.0
2017-Mar-15 07:23N 57°17' W 005°43'0 0.0
2017-Mar-15 06:25N 57°17' W 005°43'0 0.0
2017-Mar-15 05:17N 57°17' W 005°43'0 0.0
2017-Mar-15 04:32N 57°17' W 005°43'0 0.0
2017-Mar-15 03:32N 57°17' W 005°43'0 0.0
2017-Mar-15 02:31N 57°17' W 005°43'0 0.0
2017-Mar-15 01:31N 57°17' W 005°43'0 0.0
2017-Mar-15 00:26N 57°17' W 005°43'0 0.0
2017-Mar-14 23:28N 57°17' W 005°43'0 0.0
2017-Mar-14 22:29N 57°17' W 005°43'0 0.0
2017-Mar-14 21:13N 57°17' W 005°43'0 0.0
2017-Mar-14 20:17N 57°17' W 005°43'0 0.0
2017-Mar-14 19:23N 57°17' W 005°43'0 0.0
2017-Mar-14 18:29N 57°17' W 005°43'0 0.0
2017-Mar-14 17:26N 57°17' W 005°43'0 0.0
2017-Mar-14 16:29N 57°17' W 005°43'0 0.0
2017-Mar-14 15:14N 57°17' W 005°43'0 0.0
2017-Mar-14 14:29N 57°17' W 005°43'0 0.0
2017-Mar-14 13:29N 57°17' W 005°43'0 0.0
2017-Mar-14 12:26N 57°17' W 005°43'0 0.0
2017-Mar-14 11:29N 57°17' W 005°43'0 0.0
2017-Mar-14 10:32N 57°17' W 005°43'0 0.0
2017-Mar-14 09:31N 57°17' W 005°43'0 0.0
2017-Mar-14 08:05N 57°17' W 005°43'0 0.0
2017-Mar-14 07:28N 57°17' W 005°43'0 0.0
2017-Mar-14 06:29N 57°17' W 005°43'0 0.0
2017-Mar-14 05:26N 57°17' W 005°43'0 0.0
2017-Mar-14 04:29N 57°17' W 005°43'0 0.0
2017-Mar-14 03:29N 57°17' W 005°43'0 0.0
2017-Mar-14 02:23N 57°17' W 005°43'0 0.0
2017-Mar-14 01:32N 57°17' W 005°43'0 0.0
2017-Mar-14 00:32N 57°17' W 005°43'0 0.0
2017-Mar-13 23:32N 57°17' W 005°43'0 0.0
2017-Mar-13 22:32N 57°17' W 005°43'0 0.0
2017-Mar-13 21:32N 57°17' W 005°43'0 0.0
2017-Mar-13 20:23N 57°17' W 005°43'0 0.0
2017-Mar-13 19:29N 57°17' W 005°43'0 0.0
2017-Mar-13 18:17N 57°17' W 005°43'  
Track history (hours):
 
Tides and Currents Weather Stations Pressure Air Temp Water Temp Dewpoint Dewpoint Depression Visibility Wind Speed Wind Dir Waves Ship Positions

Abis Bremen

Last reported at 2017-Mar-23 17:33 UTC. Time now 2017-Mar-23 18:22 UTC.
Position N 60°44' E 004°45'.

Length 90 m; draft 5.2 m.

Type: Ship. MMSI: 246778880.

Date/timePositionNaut miles runAvg speedWind from/ knotsBaromVisibWave heightAir tempDewpointWater temp
2017-Mar-23 17:33N 60°44' E 004°45'7 7.4
2017-Mar-23 16:33N 60°37' E 004°51'0 0.0
2017-Mar-23 15:09N 60°37' E 004°51'0 0.0
2017-Mar-23 14:33N 60°37' E 004°51'0 0.0
2017-Mar-23 13:33N 60°37' E 004°51'0 0.0
2017-Mar-23 12:33N 60°37' E 004°51'0 0.0
2017-Mar-23 11:33N 60°37' E 004°51'0 0.0
2017-Mar-23 10:33N 60°37' E 004°51'0 0.0
2017-Mar-23 09:33N 60°37' E 004°51'4 4.2
2017-Mar-23 08:33N 60°41' E 004°49'10 9.7
2017-Mar-23 07:34N 60°47' E 004°33'10 9.8
2017-Mar-23 06:32N 60°55' E 004°22'1110.7
2017-Mar-23 05:33N 61°06' E 004°21'1010.3
2017-Mar-23 04:34N 61°16' E 004°21'10 9.8
2017-Mar-23 03:33N 61°26' E 004°21'1110.6
2017-Mar-23 02:33N 61°37' E 004°22'1010.0
2017-Mar-23 01:33N 61°46' E 004°25'9 9.2
2017-Mar-23 00:33N 61°55' E 004°32'9 9.1
2017-Mar-22 23:33N 62°03' E 004°41'9 9.3
2017-Mar-22 22:33N 62°11' E 004°53'9 9.2
2017-Mar-22 21:33N 62°17' E 005°06'8 8.2
2017-Mar-22 20:33N 62°23' E 005°18'8 8.1
2017-Mar-22 19:33N 62°29' E 005°32'7 6.8
2017-Mar-22 18:33N 62°29' E 005°46'8 8.2
2017-Mar-22 17:33N 62°28' E 006°04'1110.8
2017-Mar-22 16:33N 62°37' E 006°18'1110.9
2017-Mar-22 15:33N 62°43' E 006°37'2 2.1
2017-Mar-22 14:31N 62°41' E 006°40'0 0.0
2017-Mar-22 13:31N 62°41' E 006°40'0 0.0
2017-Mar-22 12:31N 62°41' E 006°40'0 0.0
2017-Mar-22 11:31N 62°41' E 006°40'0 0.0
2017-Mar-22 10:31N 62°41' E 006°40'0 0.0
2017-Mar-22 09:31N 62°41' E 006°40'0 0.0
2017-Mar-22 08:31N 62°41' E 006°40'0 0.0
2017-Mar-22 07:31N 62°41' E 006°40'0 0.0
2017-Mar-22 06:31N 62°41' E 006°40'0 0.0
2017-Mar-22 05:31N 62°41' E 006°40'0 0.0
2017-Mar-22 04:31N 62°41' E 006°40'0 0.0
2017-Mar-22 03:31N 62°41' E 006°40'0 0.0
2017-Mar-22 02:10N 62°41' E 006°40'0 0.0
2017-Mar-22 01:31N 62°41' E 006°40'0 0.0
2017-Mar-22 00:31N 62°41' E 006°40'0 0.0
2017-Mar-21 23:31N 62°41' E 006°40'0 0.0
2017-Mar-21 22:31N 62°41' E 006°40'0 0.0
2017-Mar-21 21:31N 62°41' E 006°40'0 0.0
2017-Mar-21 20:31N 62°41' E 006°40'0 0.0
2017-Mar-21 19:31N 62°41' E 006°40'0 0.0
2017-Mar-21 18:28N 62°41' E 006°40'0 0.0
2017-Mar-21 17:31N 62°41' E 006°40'0 0.0
2017-Mar-21 16:31N 62°41' E 006°40'0 0.0
2017-Mar-21 15:31N 62°41' E 006°40'0 0.0
2017-Mar-21 14:31N 62°41' E 006°40'0 0.0
2017-Mar-21 13:31N 62°41' E 006°40'0 0.0
2017-Mar-21 12:31N 62°41' E 006°40'0 0.0
2017-Mar-21 11:31N 62°41' E 006°40'0 0.0
2017-Mar-21 10:31N 62°41' E 006°40'0 0.0
2017-Mar-21 09:31N 62°41' E 006°40'0 0.0
2017-Mar-21 08:31N 62°41' E 006°40'0 0.0
2017-Mar-21 07:31N 62°41' E 006°40'0 0.0
2017-Mar-21 06:31N 62°41' E 006°40'0 0.0
2017-Mar-21 05:31N 62°41' E 006°40'0 0.0
2017-Mar-21 04:31N 62°41' E 006°40'0 0.0
2017-Mar-21 03:31N 62°41' E 006°40'0 0.0
2017-Mar-21 02:31N 62°41' E 006°40'0 0.0
2017-Mar-21 01:31N 62°41' E 006°40'0 0.0
2017-Mar-21 00:31N 62°41' E 006°40'0 0.0
2017-Mar-20 23:28N 62°41' E 006°40'0 0.0
2017-Mar-20 22:31N 62°41' E 006°40'0 0.0
2017-Mar-20 21:31N 62°41' E 006°40'0 0.0
2017-Mar-20 20:31N 62°41' E 006°40'0 0.0
2017-Mar-20 19:31N 62°41' E 006°40'0 0.0
2017-Mar-20 18:31N 62°41' E 006°40'0 0.0
2017-Mar-20 17:31N 62°41' E 006°40'0 0.0
2017-Mar-20 16:31N 62°41' E 006°40'0 0.0
2017-Mar-20 15:31N 62°41' E 006°40'0 0.0
2017-Mar-20 14:31N 62°41' E 006°40'0 0.0
2017-Mar-20 13:25N 62°41' E 006°40'0 0.0
2017-Mar-20 12:31N 62°41' E 006°40'0 0.0
2017-Mar-20 11:31N 62°41' E 006°40'0 0.0
2017-Mar-20 10:28N 62°41' E 006°40'0 0.0
2017-Mar-20 09:33N 62°41' E 006°40'7 6.9
2017-Mar-20 08:33N 62°39' E 006°25'1211.7
2017-Mar-20 07:33N 62°30' E 006°09'9 8.5
2017-Mar-20 06:33N 62°28' E 005°51'9 8.9
2017-Mar-20 05:33N 62°29' E 005°32'1010.5
2017-Mar-20 04:33N 62°22' E 005°14'1010.5
2017-Mar-20 03:33N 62°14' E 004°59'1111.0
2017-Mar-20 02:33N 62°06' E 004°44'1111.1
2017-Mar-20 01:33N 61°58' E 004°28'27310.4
2017-Mar-18 23:15N 58°54' W 002°20'710.4
2017-Mar-18 22:33N 58°50' W 002°31'1110.6
2017-Mar-18 21:33N 58°43' W 002°48'1010.1
2017-Mar-18 20:33N 58°43' W 003°07'1110.8
2017-Mar-18 19:33N 58°42' W 003°28'1110.7
2017-Mar-18 18:33N 58°41' W 003°49'1111.1
2017-Mar-18 17:33N 58°41' W 004°10'1111.1
2017-Mar-18 16:33N 58°40' W 004°32'7610.2
2017-Mar-18 09:06N 57°38' W 005°54'711.6
2017-Mar-18 08:32N 57°31' W 005°54'1211.8
2017-Mar-18 07:29N 57°19' W 005°50'5 4.7
2017-Mar-18 06:29N 57°17' W 005°43'0 0.0
2017-Mar-18 05:31N 57°17' W 005°43'0 0.0
2017-Mar-18 04:31N 57°17' W 005°43'0 0.0
2017-Mar-18 03:28N 57°17' W 005°43'0 0.0
2017-Mar-18 02:32N 57°17' W 005°43'0 0.0
2017-Mar-18 01:26N 57°17' W 005°43'0 0.0
2017-Mar-18 00:32N 57°17' W 005°43'0 0.0
2017-Mar-17 23:32N 57°17' W 005°43'0 0.0
2017-Mar-17 22:29N 57°17' W 005°43'0 0.0
2017-Mar-17 21:32N 57°17' W 005°43'0 0.0
2017-Mar-17 20:31N 57°17' W 005°43'0 0.0
2017-Mar-17 19:32N 57°17' W 005°43'0 0.0
2017-Mar-17 18:29N 57°17' W 005°43'0 0.0
2017-Mar-17 17:32N 57°17' W 005°43'0 0.0
2017-Mar-17 16:32N 57°17' W 005°43'0 0.0
2017-Mar-17 15:26N 57°17' W 005°43'0 0.0
2017-Mar-17 14:29N 57°17' W 005°43'0 0.0
2017-Mar-17 13:29N 57°17' W 005°43'0 0.0
2017-Mar-17 12:29N 57°17' W 005°43'0 0.0
2017-Mar-17 11:26N 57°17' W 005°43'0 0.0
2017-Mar-17 10:11N 57°17' W 005°43'0 0.0
2017-Mar-17 09:29N 57°17' W 005°43'0 0.0
2017-Mar-17 08:32N 57°17' W 005°43'0 0.0
2017-Mar-17 07:20N 57°17' W 005°43'0 0.0
2017-Mar-17 06:26N 57°17' W 005°43'0 0.0
2017-Mar-17 05:32N 57°17' W 005°43'0 0.0
2017-Mar-17 04:29N 57°17' W 005°43'0 0.0
2017-Mar-17 03:26N 57°17' W 005°43'0 0.0
2017-Mar-17 02:29N 57°17' W 005°43'0 0.0
2017-Mar-17 01:32N 57°17' W 005°43'0 0.0
2017-Mar-17 00:29N 57°17' W 005°43'0 0.0
2017-Mar-16 23:30N 57°17' W 005°43'0 0.0
2017-Mar-16 21:05N 57°17' W 005°43'0 0.0
2017-Mar-16 18:11N 57°17' W 005°43'0 0.0
2017-Mar-16 17:32N 57°17' W 005°43'0 0.0
2017-Mar-16 16:20N 57°17' W 005°43'0 0.0
2017-Mar-16 15:29N 57°17' W 005°43'0 0.0
2017-Mar-16 14:29N 57°17' W 005°43'0 0.0
2017-Mar-16 13:26N 57°17' W 005°43'0 0.0
2017-Mar-16 12:23N 57°17' W 005°43'0 0.0
2017-Mar-16 11:23N 57°17' W 005°43'0 0.0
2017-Mar-16 10:32N 57°17' W 005°43'0 0.0
2017-Mar-16 09:14N 57°17' W 005°43'0 0.0
2017-Mar-16 08:23N 57°17' W 005°43'0 0.0
2017-Mar-16 07:17N 57°17' W 005°43'0 0.0
2017-Mar-16 06:23N 57°17' W 005°43'0 0.0
2017-Mar-16 05:14N 57°17' W 005°43'0 0.0
2017-Mar-16 04:29N 57°17' W 005°43'0 0.0
2017-Mar-16 03:29N 57°17' W 005°43'0 0.0
2017-Mar-16 02:23N 57°17' W 005°43'0 0.0
2017-Mar-16 01:29N 57°17' W 005°43'0 0.0
2017-Mar-16 00:32N 57°17' W 005°43'0 0.0
2017-Mar-15 23:29N 57°17' W 005°43'0 0.0
2017-Mar-15 22:23N 57°17' W 005°43'0 0.0
2017-Mar-15 21:20N 57°17' W 005°43'0 0.0
2017-Mar-15 20:29N 57°17' W 005°43'0 0.0
2017-Mar-15 19:26N 57°17' W 005°43'0 0.0
2017-Mar-15 18:23N 57°17' W 005°43'0 0.0
2017-Mar-15 17:32N 57°17' W 005°43'0 0.0
2017-Mar-15 16:23N 57°17' W 005°43'0 0.0
2017-Mar-15 15:29N 57°17' W 005°43'0 0.0
2017-Mar-15 14:32N 57°17' W 005°43'0 0.0
2017-Mar-15 13:23N 57°17' W 005°43'0 0.0
2017-Mar-15 12:29N 57°17' W 005°43'0 0.0
2017-Mar-15 11:32N 57°17' W 005°43'0 0.0
2017-Mar-15 10:29N 57°17' W 005°43'0 0.0
2017-Mar-15 09:23N 57°17' W 005°43'0 0.0
2017-Mar-15 08:29N 57°17' W 005°43'0 0.0
2017-Mar-15 07:23N 57°17' W 005°43'0 0.0
2017-Mar-15 06:25N 57°17' W 005°43'0 0.0
2017-Mar-15 05:17N 57°17' W 005°43'0 0.0
2017-Mar-15 04:32N 57°17' W 005°43'0 0.0
2017-Mar-15 03:32N 57°17' W 005°43'0 0.0
2017-Mar-15 02:31N 57°17' W 005°43'0 0.0
2017-Mar-15 01:31N 57°17' W 005°43'0 0.0
2017-Mar-15 00:26N 57°17' W 005°43'0 0.0
2017-Mar-14 23:28N 57°17' W 005°43'0 0.0
2017-Mar-14 22:29N 57°17' W 005°43'0 0.0
2017-Mar-14 21:13N 57°17' W 005°43'0 0.0
2017-Mar-14 20:17N 57°17' W 005°43'0 0.0
2017-Mar-14 19:23N 57°17' W 005°43'0 0.0
2017-Mar-14 18:29N 57°17' W 005°43'0 0.0
2017-Mar-14 17:26N 57°17' W 005°43'0 0.0
2017-Mar-14 16:29N 57°17' W 005°43'0 0.0
2017-Mar-14 15:14N 57°17' W 005°43'0 0.0
2017-Mar-14 14:29N 57°17' W 005°43'0 0.0
2017-Mar-14 13:29N 57°17' W 005°43'0 0.0
2017-Mar-14 12:26N 57°17' W 005°43'0 0.0
2017-Mar-14 11:29N 57°17' W 005°43'0 0.0
2017-Mar-14 10:32N 57°17' W 005°43'0 0.0
2017-Mar-14 09:31N 57°17' W 005°43'0 0.0
2017-Mar-14 08:05N 57°17' W 005°43'0 0.0
2017-Mar-14 07:28N 57°17' W 005°43'0 0.0
2017-Mar-14 06:29N 57°17' W 005°43'0 0.0
2017-Mar-14 05:26N 57°17' W 005°43'0 0.0
2017-Mar-14 04:29N 57°17' W 005°43'0 0.0
2017-Mar-14 03:29N 57°17' W 005°43'0 0.0
2017-Mar-14 02:23N 57°17' W 005°43'0 0.0
2017-Mar-14 01:32N 57°17' W 005°43'0 0.0
2017-Mar-14 00:32N 57°17' W 005°43'0 0.0
2017-Mar-13 23:32N 57°17' W 005°43'0 0.0
2017-Mar-13 22:32N 57°17' W 005°43'0 0.0
2017-Mar-13 21:32N 57°17' W 005°43'0 0.0
2017-Mar-13 20:23N 57°17' W 005°43'0 0.0
2017-Mar-13 19:29N 57°17' W 005°43'0 0.0
2017-Mar-13 18:17N 57°17' W 005°43'  

Dump ship's entire track history